createdAt,value
2019-05-15T00:00:45.106Z,6
2019-05-15T00:05:49.480Z,8
2019-05-15T00:10:50.208Z,5
2019-05-15T00:15:52.634Z,4
2019-05-15T00:20:54.998Z,4
2019-05-15T00:25:58.410Z,4
2019-05-15T00:30:59.877Z,6
2019-05-15T00:36:02.374Z,3
2019-05-15T00:41:04.818Z,3
2019-05-15T00:46:09.125Z,5
2019-05-15T00:51:09.947Z,5
2019-05-15T00:56:12.348Z,5
2019-05-15T01:01:14.619Z,6
2019-05-15T01:06:19.022Z,5
2019-05-15T01:11:19.529Z,6
2019-05-15T01:16:22.019Z,5
2019-05-15T01:21:24.572Z,4
2019-05-15T01:26:28.185Z,4
2019-05-15T01:31:29.779Z,4
2019-05-15T01:36:31.845Z,9
2019-05-15T01:41:34.326Z,5
2019-05-15T01:46:39.253Z,5
2019-05-15T01:51:39.346Z,6
2019-05-15T01:56:41.863Z,4
2019-05-15T02:01:44.249Z,10
2019-05-15T02:06:48.208Z,4
2019-05-15T02:11:49.078Z,6
2019-05-15T02:16:51.616Z,3
2019-05-15T02:21:54.042Z,4
2019-05-15T02:26:58.658Z,3
2019-05-15T02:31:59.464Z,4
2019-05-15T02:37:01.426Z,4
2019-05-15T02:42:03.923Z,4
2019-05-15T02:47:09.175Z,3
2019-05-15T02:52:09.733Z,4
2019-05-15T02:57:11.184Z,5
2019-05-15T03:02:13.700Z,5
2019-05-15T03:07:18.961Z,5
2019-05-15T03:12:19.527Z,4
2019-05-15T03:17:21.142Z,5
2019-05-15T03:22:23.564Z,3
2019-05-15T03:27:25.972Z,5
2019-05-15T03:32:40.650Z,7
2019-05-15T03:37:33.114Z,4
2019-05-15T03:42:33.326Z,3
2019-05-15T03:47:35.783Z,6
2019-05-15T03:52:39.384Z,4
2019-05-15T03:57:40.958Z,4
2019-05-15T04:02:43.163Z,5
2019-05-15T04:07:45.698Z,5
2019-05-15T04:12:49.213Z,4
2019-05-15T04:17:50.623Z,6
2019-05-15T04:22:53.087Z,6
2019-05-15T04:27:58.676Z,5
2019-05-15T04:32:59.361Z,3
2019-05-15T04:38:00.430Z,6
2019-05-15T04:43:02.947Z,4
2019-05-15T04:48:05.339Z,3
2019-05-15T04:53:10.466Z,4
2019-05-15T04:58:10.734Z,5
2019-05-15T05:03:12.767Z,3
2019-05-15T05:08:15.291Z,5
2019-05-15T05:13:19.728Z,3
2019-05-15T05:18:20.212Z,8
2019-05-15T05:23:22.644Z,3
2019-05-15T05:28:25.087Z,3
2019-05-15T05:33:28.598Z,4
2019-05-15T05:38:30.279Z,3
2019-05-15T05:43:32.483Z,4
2019-05-15T05:48:34.882Z,7
2019-05-15T05:53:38.273Z,4
2019-05-15T05:58:39.844Z,4
2019-05-15T06:03:42.534Z,6
2019-05-15T06:08:44.859Z,6
2019-05-15T06:13:51.753Z,6
2019-05-15T06:18:49.672Z,6
2019-05-15T06:23:55.022Z,3
2019-05-15T06:28:54.649Z,4
2019-05-15T06:33:58.036Z,4
2019-05-15T06:38:59.556Z,6
2019-05-15T06:44:02.031Z,3
2019-05-15T06:49:04.420Z,6
2019-05-15T06:59:09.497Z,4
2019-05-15T07:04:12.200Z,4
2019-05-15T07:09:14.215Z,5
2019-05-15T07:14:18.064Z,7
2019-05-15T07:19:19.309Z,5
2019-05-15T07:24:21.702Z,5
2019-05-15T07:29:24.100Z,3
2019-05-15T07:34:28.301Z,3
2019-05-15T07:39:29.038Z,6
2019-05-15T07:44:31.547Z,4
2019-05-15T07:49:33.957Z,4
2019-05-15T07:54:38.286Z,3
2019-05-15T07:59:38.837Z,3
2019-05-15T08:04:41.371Z,3
2019-05-15T08:09:43.895Z,4
2019-05-15T08:14:48.141Z,3
2019-05-15T08:19:48.782Z,4
2019-05-15T08:24:51.337Z,4
2019-05-15T08:29:53.622Z,6
2019-05-15T08:34:56.036Z,3
2019-05-15T08:45:01.102Z,4
2019-05-15T08:50:03.373Z,4
2019-05-15T08:55:08.330Z,4
2019-05-15T09:00:09.619Z,6
2019-05-15T09:05:10.892Z,3
2019-05-15T09:10:18.338Z,2
2019-05-15T09:15:18.286Z,3
2019-05-15T09:20:19.379Z,3
2019-05-15T09:25:20.606Z,5
2019-05-15T09:30:23.249Z,6
2019-05-15T09:35:27.698Z,3
2019-05-15T09:40:43.043Z,5
2019-05-15T09:45:30.482Z,3
2019-05-15T09:50:33.116Z,3
2019-05-15T09:55:38.123Z,4
2019-05-15T10:00:38.539Z,4
2019-05-15T10:05:40.449Z,3
2019-05-15T10:10:48.706Z,3
2019-05-15T10:15:48.253Z,5
2019-05-15T10:20:47.766Z,3
2019-05-15T10:25:50.057Z,3
2019-05-15T10:30:52.521Z,5
2019-05-15T10:35:54.983Z,10
2019-05-15T10:41:08.384Z,3
2019-05-15T10:46:00.205Z,4
2019-05-15T10:51:07.023Z,5
2019-05-15T10:56:04.852Z,4
2019-05-15T11:01:10.448Z,3
2019-05-15T11:06:09.771Z,6
2019-05-15T11:11:12.205Z,3
2019-05-15T11:16:14.875Z,5
2019-05-15T11:21:18.961Z,4
2019-05-15T11:26:19.652Z,4
2019-05-15T11:31:24.746Z,8
2019-05-15T11:36:24.595Z,4
2019-05-15T11:41:30.751Z,4
2019-05-15T11:46:29.474Z,7
2019-05-15T11:51:31.860Z,5
2019-05-15T11:56:34.340Z,5
2019-05-15T12:01:38.242Z,5
2019-05-15T12:06:39.203Z,3
2019-05-15T12:11:41.697Z,6
2019-05-15T12:17:00.862Z,4
2019-05-15T12:21:48.812Z,4
2019-05-15T12:26:49.106Z,4
2019-05-15T12:31:51.555Z,4
2019-05-15T12:36:57.861Z,3
2019-05-15T14:02:39.677Z,5
2019-05-15T14:07:48.548Z,5
2019-05-15T14:12:41.310Z,6
2019-05-15T14:17:43.092Z,5
2019-05-15T14:22:47.885Z,6
2019-05-15T14:27:48.588Z,9
2019-05-15T14:32:50.528Z,6
2019-05-15T14:38:03.357Z,5
2019-05-15T14:42:55.514Z,5
2019-05-15T14:47:58.220Z,5
2019-05-15T14:53:00.419Z,6
2019-05-15T14:58:02.772Z,4
2019-05-15T15:03:05.274Z,5
2019-05-15T15:08:18.199Z,5
2019-05-15T15:13:10.143Z,8
2019-05-15T15:18:12.794Z,5
2019-05-15T15:23:15.169Z,7
2019-05-15T15:28:18.819Z,7
2019-05-15T15:33:20.172Z,6
2019-05-15T15:38:35.277Z,6
2019-05-15T15:43:25.070Z,7
2019-05-15T15:48:28.689Z,7
2019-05-15T15:53:29.809Z,6
2019-05-15T15:58:32.310Z,7
2019-05-15T16:03:34.811Z,6
2019-05-15T16:08:51.045Z,7
2019-05-15T16:13:39.934Z,6
2019-05-15T16:23:44.579Z,7
2019-05-15T16:28:48.900Z,6
2019-05-15T16:33:49.495Z,6
2019-05-15T16:39:03.872Z,6
2019-05-15T16:43:54.448Z,6
2019-05-15T16:48:58.335Z,7
2019-05-15T16:53:59.338Z,8
2019-05-15T16:59:01.896Z,6
2019-05-15T17:04:04.273Z,6
2019-05-15T17:09:16.582Z,6
2019-05-15T17:14:09.214Z,7
2019-05-15T17:19:11.613Z,5
2019-05-15T17:24:14.174Z,8
2019-05-15T17:29:18.483Z,6
2019-05-15T17:34:18.976Z,6
2019-05-15T17:39:33.606Z,7
2019-05-15T17:44:23.962Z,8
2019-05-15T17:49:28.005Z,8
2019-05-15T17:54:28.900Z,15
2019-05-15T17:59:31.359Z,8
2019-05-15T18:04:33.803Z,8
2019-05-15T18:09:48.232Z,7
2019-05-15T18:14:38.753Z,8
2019-05-15T18:19:41.160Z,9
2019-05-15T18:24:45.312Z,8
2019-05-15T18:29:48.017Z,7
2019-05-15T18:34:48.861Z,8
2019-05-15T18:40:01.126Z,8
2019-05-15T18:44:53.820Z,10
2019-05-15T18:50:04.909Z,9
2019-05-15T18:54:58.824Z,9
2019-05-15T19:00:01.112Z,8
2019-05-15T19:05:03.478Z,8
2019-05-15T19:10:07.403Z,8
2019-05-15T19:15:09.164Z,6
2019-05-15T19:20:10.610Z,8
2019-05-15T19:25:13.811Z,9
2019-05-15T19:30:15.626Z,7
2019-05-15T19:35:18.487Z,7
2019-05-15T19:40:20.516Z,7
2019-05-15T19:45:23.023Z,8
2019-05-15T19:50:25.472Z,10
2019-05-15T19:55:27.821Z,12
2019-05-15T20:00:30.265Z,5
2019-05-15T20:05:32.688Z,12
2019-05-15T20:15:38.009Z,12
2019-05-15T20:20:40.136Z,15
2019-05-15T20:25:42.582Z,8
2019-05-15T20:30:44.982Z,10
2019-05-15T20:35:47.956Z,10
2019-05-15T20:40:49.968Z,12
2019-05-15T20:45:52.363Z,8
2019-05-15T20:50:54.875Z,8
2019-05-15T20:55:58.836Z,8
2019-05-15T21:00:59.741Z,10
2019-05-15T21:06:02.190Z,8
2019-05-15T21:11:04.642Z,8
2019-05-15T21:16:08.243Z,9
2019-05-15T21:21:10.400Z,13
2019-05-15T21:26:12.053Z,13
2019-05-15T21:31:14.473Z,12
2019-05-15T21:36:19.239Z,13
2019-05-15T21:41:19.386Z,11
2019-05-15T21:46:21.947Z,7
2019-05-15T21:51:24.320Z,6
2019-05-15T21:56:27.948Z,7
2019-05-15T22:01:29.426Z,6
2019-05-15T22:06:31.642Z,6
2019-05-15T22:11:34.214Z,7
2019-05-15T22:16:36.735Z,7
2019-05-15T22:21:40.672Z,7
2019-05-15T22:26:41.520Z,8
2019-05-15T22:31:44.034Z,8
2019-05-15T22:36:48.801Z,8
2019-05-15T22:41:48.925Z,7
2019-05-15T22:46:51.332Z,10
2019-05-15T22:51:53.772Z,9
2019-05-15T22:56:57.650Z,8
2019-05-15T23:01:58.694Z,8
2019-05-15T23:07:01.175Z,7
2019-05-15T23:12:03.683Z,7
2019-05-15T23:17:08.125Z,9
2019-05-15T23:22:08.643Z,8
2019-05-15T23:27:11.012Z,8
2019-05-15T23:32:13.545Z,11
2019-05-15T23:37:15.905Z,10
2019-05-15T23:42:18.617Z,10
2019-05-15T23:47:20.826Z,8
2019-05-15T23:52:23.296Z,7
2019-05-15T23:57:28.495Z,7
